createdAt,value
2022-09-02T00:02:25.353Z,21.80
2022-09-02T00:04:53.118Z,21.80
2022-09-02T00:07:20.616Z,21.80
2022-09-02T00:09:48.021Z,21.80
2022-09-02T00:12:16.150Z,21.80
2022-09-02T00:14:43.650Z,21.70
2022-09-02T00:17:11.133Z,21.70
2022-09-02T00:19:38.555Z,21.60
2022-09-02T00:22:05.990Z,21.60
2022-09-02T00:24:33.556Z,21.60
2022-09-02T00:27:01.082Z,21.50
2022-09-02T00:29:28.980Z,21.40
2022-09-02T00:31:56.667Z,21.40
2022-09-02T00:34:25.400Z,21.50
2022-09-02T00:36:52.939Z,21.40
2022-09-02T00:39:20.697Z,21.40
2022-09-02T00:41:48.354Z,21.30
2022-09-02T00:44:18.358Z,21.30
2022-09-02T00:46:46.662Z,21.30
2022-09-02T00:49:25.471Z,21.30
2022-09-02T00:52:14.251Z,21.20
2022-09-02T00:54:51.330Z,21.20
2022-09-02T00:57:23.389Z,21.20
2022-09-02T01:00:09.376Z,21.10
2022-09-02T01:02:40.123Z,21.10
2022-09-02T01:05:11.162Z,21.10
2022-09-02T01:07:40.053Z,21.10
2022-09-02T01:10:11.750Z,21.10
2022-09-02T01:12:39.624Z,21.10
2022-09-02T01:15:09.272Z,21.10
2022-09-02T01:17:42.994Z,21.10
2022-09-02T01:20:15.122Z,21.10
2022-09-02T01:22:45.812Z,21.10
2022-09-02T01:25:17.414Z,21.20
2022-09-02T01:27:45.035Z,21.10
2022-09-02T01:30:18.844Z,21.10
2022-09-02T01:32:46.365Z,21.10
2022-09-02T01:35:16.028Z,21.10
2022-09-02T01:37:55.484Z,21.10
2022-09-02T01:40:25.854Z,21.10
2022-09-02T01:43:07.779Z,21.10
2022-09-02T01:45:38.120Z,21.10
2022-09-02T01:48:06.954Z,21.10
2022-09-02T01:50:37.012Z,21.10
2022-09-02T01:53:05.233Z,21.00
2022-09-02T01:55:34.767Z,20.90
2022-09-02T01:58:03.595Z,20.90
2022-09-02T02:00:31.824Z,20.90
2022-09-02T02:02:59.601Z,20.90
2022-09-02T02:05:27.119Z,20.90
2022-09-02T02:07:54.973Z,20.90
2022-09-02T02:10:23.390Z,20.90
2022-09-02T02:12:51.573Z,20.90
2022-09-02T02:17:50.367Z,20.90
2022-09-02T02:20:19.194Z,20.90
2022-09-02T02:22:47.476Z,20.90
2022-09-02T02:25:16.177Z,20.90
2022-09-02T02:27:44.109Z,20.90
2022-09-02T02:30:14.088Z,20.90
2022-09-02T02:32:43.437Z,20.90
2022-09-02T02:35:12.089Z,21.00
2022-09-02T02:37:40.114Z,21.00
2022-09-02T02:40:11.847Z,21.00
2022-09-02T02:42:39.903Z,21.00
2022-09-02T02:45:10.121Z,21.00
2022-09-02T02:47:46.125Z,21.00
2022-09-02T02:50:18.657Z,21.00
2022-09-02T02:52:49.043Z,21.00
2022-09-02T02:55:18.345Z,21.00
2022-09-02T02:57:46.288Z,21.10
2022-09-02T03:00:25.071Z,21.10
2022-09-02T03:02:57.295Z,21.10
2022-09-02T03:05:26.033Z,21.20
2022-09-02T03:07:53.763Z,21.20
2022-09-02T03:10:23.424Z,21.30
2022-09-02T03:12:51.984Z,21.20
2022-09-02T03:15:21.308Z,21.20
2022-09-02T03:17:52.434Z,21.20
2022-09-02T03:20:21.457Z,21.20
2022-09-02T03:22:56.466Z,21.20
2022-09-02T03:25:25.713Z,21.20
2022-09-02T03:27:56.256Z,21.20
2022-09-02T03:30:26.951Z,21.20
2022-09-02T03:33:01.730Z,21.20
2022-09-02T03:35:34.258Z,21.20
2022-09-02T03:38:01.782Z,21.20
2022-09-02T03:40:30.535Z,21.20
2022-09-02T03:43:00.475Z,21.20
2022-09-02T03:45:30.968Z,21.10
2022-09-02T03:48:01.932Z,21.10
2022-09-02T03:50:39.873Z,21.10
2022-09-02T03:53:19.764Z,21.00
2022-09-02T03:55:51.026Z,21.00
2022-09-02T03:58:21.030Z,20.90
2022-09-02T04:00:52.478Z,20.90
2022-09-02T04:03:21.997Z,20.90
2022-09-02T04:05:50.896Z,20.80
2022-09-02T04:08:20.004Z,20.90
2022-09-02T04:10:48.390Z,20.80
2022-09-02T04:13:16.495Z,20.70
2022-09-02T04:15:48.029Z,20.70
2022-09-02T04:18:17.907Z,20.60
2022-09-02T04:20:45.648Z,20.60
2022-09-02T04:23:14.511Z,20.60
2022-09-02T04:25:44.623Z,20.50
2022-09-02T04:28:13.264Z,20.50
2022-09-02T04:30:42.482Z,20.50
2022-09-02T04:33:11.760Z,20.50
2022-09-02T04:35:44.409Z,20.50
2022-09-02T04:38:12.705Z,20.50
2022-09-02T04:40:43.847Z,20.50
2022-09-02T04:43:12.589Z,20.60
2022-09-02T04:45:45.519Z,20.50
2022-09-02T04:48:15.401Z,20.60
2022-09-02T04:50:43.119Z,20.60
2022-09-02T04:53:11.598Z,20.60
2022-09-02T04:55:42.464Z,20.60
2022-09-02T04:58:12.231Z,20.60
2022-09-02T05:00:42.422Z,20.70
2022-09-02T05:03:13.121Z,20.80
2022-09-02T05:05:42.764Z,20.90
2022-09-02T05:08:13.189Z,21.00
2022-09-02T05:10:42.051Z,21.10
2022-09-02T05:13:09.507Z,21.20
2022-09-02T05:15:41.061Z,21.30
2022-09-02T05:18:10.463Z,21.30
2022-09-02T05:20:40.630Z,21.30
2022-09-02T05:23:09.108Z,21.20
2022-09-02T05:25:38.650Z,21.30
2022-09-02T05:28:10.943Z,21.40
2022-09-02T05:30:40.191Z,21.30
2022-09-02T05:33:09.564Z,21.40
2022-09-02T05:35:45.418Z,21.90
2022-09-02T05:38:17.200Z,22.50
2022-09-02T05:40:47.043Z,22.90
2022-09-02T05:43:14.854Z,23.60
2022-09-02T05:45:42.931Z,24.40
2022-09-02T05:48:29.937Z,24.60
2022-09-02T05:50:58.598Z,26.10
2022-09-02T05:55:57.338Z,27.60
2022-09-02T05:58:25.414Z,26.70
2022-09-02T06:00:54.160Z,25.80
2022-09-02T06:03:22.169Z,24.90
2022-09-02T06:06:00.711Z,25.10
2022-09-02T06:08:31.659Z,24.60
2022-09-02T06:11:01.847Z,24.70
2022-09-02T06:13:35.342Z,25.90
2022-09-02T06:16:05.505Z,26.90
2022-09-02T06:18:35.009Z,27.20
2022-09-02T06:21:04.670Z,26.50
2022-09-02T06:23:38.949Z,27.30
2022-09-02T06:26:09.216Z,27.70
2022-09-02T06:28:37.021Z,26.90
2022-09-02T06:31:16.207Z,26.20
2022-09-02T06:33:45.648Z,25.50
2022-09-02T06:36:18.741Z,25.70
2022-09-02T06:38:50.298Z,24.60
2022-09-02T06:41:23.234Z,24.30
2022-09-02T06:43:53.035Z,24.00
2022-09-02T06:46:29.278Z,23.60
2022-09-02T06:48:59.662Z,23.60
2022-09-02T06:51:34.472Z,23.70
2022-09-02T06:54:03.729Z,23.70
2022-09-02T06:56:35.233Z,24.00
2022-09-02T06:59:05.406Z,23.60
2022-09-02T07:01:43.527Z,23.60
2022-09-02T07:04:30.337Z,23.20
2022-09-02T07:06:58.757Z,23.20
2022-09-02T07:09:32.779Z,23.10
2022-09-02T07:12:08.644Z,23.00
2022-09-02T07:14:42.804Z,23.20
2022-09-02T07:17:21.835Z,23.20
2022-09-02T07:19:55.924Z,23.10
2022-09-02T07:22:24.018Z,23.20
2022-09-02T07:24:52.695Z,22.80
2022-09-02T07:27:21.277Z,22.90
2022-09-02T07:29:50.539Z,23.00
2022-09-02T07:32:18.997Z,24.90
2022-09-02T07:34:47.183Z,26.10
2022-09-02T07:37:14.949Z,26.40
2022-09-02T07:39:45.213Z,26.20
2022-09-02T07:42:16.108Z,26.50
2022-09-02T07:44:44.089Z,25.60
2022-09-02T07:47:11.728Z,25.40
2022-09-02T07:52:30.724Z,25.80
2022-09-02T07:54:58.372Z,25.90
2022-09-02T07:57:26.486Z,25.80
2022-09-02T07:59:55.780Z,25.70
2022-09-02T08:02:24.914Z,25.20
2022-09-02T08:04:54.399Z,25.40
2022-09-02T08:07:24.283Z,24.80
2022-09-02T08:09:52.781Z,24.60
2022-09-02T08:12:22.283Z,24.60
2022-09-02T08:14:50.532Z,25.00
2022-09-02T08:17:18.075Z,24.70
2022-09-02T08:19:45.879Z,24.70
2022-09-02T08:22:15.462Z,24.60
2022-09-02T08:24:42.968Z,24.70
2022-09-02T08:27:10.513Z,24.40
2022-09-02T08:29:37.930Z,24.70
2022-09-02T08:32:06.208Z,24.60
2022-09-02T08:34:33.858Z,25.00
2022-09-02T08:37:01.426Z,25.10
2022-09-02T08:39:28.886Z,25.00
2022-09-02T08:42:19.376Z,25.10
2022-09-02T08:44:48.023Z,25.00
2022-09-02T08:47:23.197Z,25.20
2022-09-02T08:49:58.974Z,25.00
2022-09-02T08:52:39.484Z,25.00
2022-09-02T08:55:10.883Z,25.30
2022-09-02T08:57:44.272Z,25.30
2022-09-02T09:00:13.402Z,25.10
2022-09-02T09:03:18.610Z,25.00
2022-09-02T09:06:19.668Z,25.10
2022-09-02T09:09:13.962Z,25.20
2022-09-02T09:12:06.039Z,25.30
2022-09-02T09:14:58.418Z,25.20
2022-09-02T09:17:42.433Z,25.40
2022-09-02T09:20:19.672Z,25.30
2022-09-02T09:22:50.423Z,25.60
2022-09-02T09:25:18.414Z,25.60
2022-09-02T09:27:46.176Z,25.60
2022-09-02T09:30:15.445Z,25.30
2022-09-02T09:32:54.759Z,25.70
2022-09-02T09:35:22.615Z,25.80
2022-09-02T09:37:54.593Z,25.80
2022-09-02T09:40:24.339Z,25.90
2022-09-02T09:43:07.959Z,26.10
2022-09-02T09:45:49.967Z,26.30
2022-09-02T09:48:17.920Z,26.10
2022-09-02T09:50:47.417Z,26.30
2022-09-02T09:53:14.872Z,26.40
2022-09-02T09:55:56.674Z,26.60
2022-09-02T09:58:48.262Z,26.60
2022-09-02T10:01:23.802Z,26.90
2022-09-02T10:04:39.439Z,26.60
2022-09-02T10:07:00.964Z,26.70
2022-09-02T10:09:32.169Z,26.80
2022-09-02T10:12:01.444Z,26.60
2022-09-02T10:14:33.942Z,26.80
2022-09-02T10:17:10.159Z,26.90
2022-09-02T10:19:55.323Z,26.70
2022-09-02T10:22:59.267Z,26.70
2022-09-02T10:25:43.079Z,26.40
2022-09-02T10:28:31.776Z,26.00
2022-09-02T10:31:26.935Z,26.20
2022-09-02T10:34:03.890Z,25.90
2022-09-02T10:36:37.767Z,25.80
2022-09-02T10:39:52.896Z,26.00
2022-09-02T10:42:48.059Z,26.30
2022-09-02T10:45:30.934Z,26.10
2022-09-02T10:48:13.348Z,26.10
2022-09-02T10:50:56.217Z,26.20
2022-09-02T10:53:32.465Z,26.30
2022-09-02T10:56:08.224Z,26.50
2022-09-02T10:58:57.545Z,26.20
2022-09-02T11:01:51.263Z,26.50
2022-09-02T11:04:56.681Z,26.30
2022-09-02T11:07:41.888Z,25.80
2022-09-02T11:10:23.631Z,25.80
2022-09-02T11:13:09.614Z,25.80
2022-09-02T11:15:39.718Z,26.00
2022-09-02T11:18:33.165Z,26.20
2022-09-02T11:21:32.102Z,26.40
2022-09-02T11:24:04.013Z,26.20
2022-09-02T11:26:38.577Z,26.20
2022-09-02T11:29:14.102Z,26.30
2022-09-02T11:31:58.749Z,26.10
2022-09-02T11:34:37.393Z,26.10
2022-09-02T11:37:13.960Z,26.30
2022-09-02T11:40:23.782Z,26.40
2022-09-02T11:42:58.229Z,26.50
2022-09-02T11:45:58.276Z,26.60
2022-09-02T11:48:29.453Z,26.40
2022-09-02T11:51:15.195Z,26.50
2022-09-02T11:53:45.392Z,26.00
2022-09-02T11:56:21.235Z,25.90
2022-09-02T11:58:52.465Z,26.10
2022-09-02T12:01:26.112Z,26.30
2022-09-02T12:07:09.853Z,26.50
2022-09-02T12:09:49.474Z,26.20
2022-09-02T12:12:39.009Z,26.20
2022-09-02T12:15:07.124Z,26.20
2022-09-02T12:17:39.928Z,26.10
2022-09-02T12:20:11.898Z,26.10
2022-09-02T12:22:40.810Z,26.20
2022-09-02T12:25:49.572Z,26.40
2022-09-02T12:28:21.620Z,26.50
2022-09-02T12:31:24.513Z,26.30
2022-09-02T12:33:52.046Z,26.20
2022-09-02T12:36:45.602Z,26.40
2022-09-02T12:39:24.959Z,26.20
2022-09-02T12:42:04.468Z,26.20
2022-09-02T12:44:45.566Z,26.30
2022-09-02T12:47:32.327Z,26.10
2022-09-02T12:50:11.462Z,26.30
2022-09-02T12:52:43.221Z,26.40
2022-09-02T12:55:16.832Z,26.40
2022-09-02T12:57:51.613Z,26.30
2022-09-02T13:00:28.404Z,26.30
2022-09-02T13:03:14.638Z,26.50
2022-09-02T13:06:04.169Z,26.40
2022-09-02T13:09:02.635Z,26.40
2022-09-02T13:11:58.083Z,26.50
2022-09-02T13:14:44.505Z,26.50
2022-09-02T13:17:36.604Z,26.40
2022-09-02T13:20:20.242Z,26.50
2022-09-02T13:22:50.325Z,26.70
2022-09-02T13:25:43.653Z,26.80
2022-09-02T13:28:36.209Z,26.90
2022-09-02T13:31:14.390Z,26.90
2022-09-02T13:33:42.795Z,26.80
2022-09-02T13:36:10.507Z,26.90
2022-09-02T13:38:38.966Z,27.00
2022-09-02T13:41:06.704Z,27.10
2022-09-02T13:43:34.412Z,26.80
2022-09-02T13:46:02.979Z,26.80
2022-09-02T13:48:34.192Z,26.70
2022-09-02T13:51:13.920Z,26.70
2022-09-02T13:53:45.484Z,26.80
2022-09-02T13:56:28.308Z,26.90
2022-09-02T13:58:57.063Z,26.70
2022-09-02T14:01:28.232Z,26.90
2022-09-02T14:06:38.468Z,27.10
2022-09-02T14:09:10.978Z,27.10
2022-09-02T14:11:48.890Z,26.80
2022-09-02T14:14:19.912Z,26.90
2022-09-02T14:16:47.343Z,27.00
2022-09-02T14:19:17.528Z,26.90
2022-09-02T14:21:51.548Z,27.00
2022-09-02T14:24:40.384Z,27.10
2022-09-02T14:27:20.128Z,27.20
2022-09-02T14:29:55.898Z,27.10
2022-09-02T14:32:28.214Z,27.20
2022-09-02T14:35:19.825Z,26.90
2022-09-02T14:37:59.642Z,26.80
2022-09-02T14:40:39.416Z,26.80
2022-09-02T14:43:15.832Z,26.90
2022-09-02T14:45:49.056Z,26.80
2022-09-02T14:48:26.943Z,26.80
2022-09-02T14:51:03.203Z,26.80
2022-09-02T14:53:31.899Z,27.00
2022-09-02T14:56:00.294Z,27.00
2022-09-02T14:58:28.917Z,27.10
2022-09-02T15:00:59.657Z,27.20
2022-09-02T15:03:28.676Z,27.10
2022-09-02T15:05:56.285Z,27.30
2022-09-02T15:08:24.818Z,27.10
2022-09-02T15:11:01.108Z,27.10
2022-09-02T15:13:33.736Z,27.30
2022-09-02T15:16:02.873Z,27.30
2022-09-02T15:18:31.085Z,27.20
2022-09-02T15:20:58.714Z,27.20
2022-09-02T15:23:27.230Z,27.20
2022-09-02T15:25:55.925Z,27.30
2022-09-02T15:28:23.334Z,27.30
2022-09-02T15:30:58.387Z,27.30
2022-09-02T15:33:26.189Z,27.30
2022-09-02T15:35:54.462Z,27.30
2022-09-02T15:38:21.877Z,27.50
2022-09-02T15:40:49.295Z,27.50
2022-09-02T15:43:17.048Z,27.70
2022-09-02T15:45:50.682Z,27.60
2022-09-02T15:48:18.115Z,27.50
2022-09-02T15:50:46.583Z,27.50
2022-09-02T15:53:15.270Z,27.60
2022-09-02T15:55:42.724Z,27.60
2022-09-02T15:58:10.229Z,27.40
2022-09-02T16:00:38.140Z,27.40
2022-09-02T16:03:05.795Z,27.30
2022-09-02T16:05:33.308Z,27.30
2022-09-02T16:08:01.633Z,27.20
2022-09-02T16:10:30.357Z,27.30
2022-09-02T16:13:00.623Z,27.10
2022-09-02T16:15:28.634Z,27.10
2022-09-02T16:17:57.037Z,27.00
2022-09-02T16:20:25.018Z,26.90
2022-09-02T16:22:52.655Z,26.80
2022-09-02T16:25:21.724Z,26.80
2022-09-02T16:27:52.029Z,26.80
2022-09-02T16:30:20.052Z,26.80
2022-09-02T16:32:50.628Z,26.80
2022-09-02T16:35:18.122Z,26.80
2022-09-02T16:37:45.612Z,26.70
2022-09-02T16:40:21.105Z,26.70
2022-09-02T16:42:49.148Z,26.70
2022-09-02T16:45:16.697Z,26.60
2022-09-02T16:47:44.182Z,26.50
2022-09-02T16:50:12.738Z,26.50
2022-09-02T16:52:41.076Z,26.30
2022-09-02T16:55:08.939Z,26.20
2022-09-02T16:57:36.408Z,26.20
2022-09-02T17:00:05.547Z,26.10
2022-09-02T17:02:33.069Z,26.00
2022-09-02T17:05:00.570Z,26.00
2022-09-02T17:07:28.032Z,26.00
2022-09-02T17:09:55.544Z,25.90
2022-09-02T17:12:22.981Z,25.80
2022-09-02T17:14:50.422Z,25.60
2022-09-02T17:17:17.961Z,25.50
2022-09-02T17:19:45.416Z,25.40
2022-09-02T17:22:12.860Z,25.20
2022-09-02T17:24:41.947Z,25.10
2022-09-02T17:27:09.655Z,24.90
2022-09-02T17:29:52.452Z,24.70
2022-09-02T17:32:20.283Z,24.60
2022-09-02T17:34:49.704Z,24.40
2022-09-02T17:37:17.371Z,24.20
2022-09-02T17:39:44.871Z,24.00
2022-09-02T17:42:14.674Z,23.90
2022-09-02T17:44:42.776Z,23.90
2022-09-02T17:47:11.604Z,23.70
2022-09-02T17:49:44.411Z,23.60
2022-09-02T17:52:18.638Z,23.60
2022-09-02T17:54:49.439Z,23.50
2022-09-02T17:57:19.693Z,23.20
2022-09-02T18:00:07.582Z,23.10
2022-09-02T18:02:43.382Z,22.90
2022-09-02T18:05:19.637Z,22.90
2022-09-02T18:08:21.321Z,22.80
2022-09-02T18:10:58.402Z,23.00
2022-09-02T18:13:41.246Z,23.20
2022-09-02T18:16:32.438Z,23.10
2022-09-02T18:19:27.561Z,23.00
2022-09-02T18:22:25.615Z,23.00
2022-09-02T18:25:05.176Z,22.90
2022-09-02T18:27:45.574Z,23.10
2022-09-02T18:30:18.365Z,23.40
2022-09-02T18:32:56.007Z,23.10
2022-09-02T18:35:45.037Z,23.40
2022-09-02T18:38:40.375Z,23.70
2022-09-02T18:41:38.629Z,23.90
2022-09-02T18:44:07.707Z,23.90
2022-09-02T18:46:52.847Z,23.80
2022-09-02T18:49:23.401Z,23.70
2022-09-02T18:51:58.966Z,23.70
2022-09-02T18:54:37.214Z,23.70
2022-09-02T18:57:09.314Z,23.80
2022-09-02T19:00:02.809Z,23.80
2022-09-02T19:02:50.151Z,23.90
2022-09-02T19:05:20.947Z,23.90
2022-09-02T19:08:18.349Z,23.80
2022-09-02T19:10:45.885Z,23.80
2022-09-02T19:13:13.439Z,23.70
2022-09-02T19:15:42.232Z,23.70
2022-09-02T19:18:11.384Z,23.70
2022-09-02T19:20:39.195Z,23.60
2022-09-02T19:23:08.232Z,23.50
2022-09-02T19:25:39.198Z,23.40
2022-09-02T19:28:09.298Z,23.40
2022-09-02T19:30:38.219Z,23.30
2022-09-02T19:33:09.518Z,23.40
2022-09-02T19:35:38.258Z,23.40
2022-09-02T19:38:06.013Z,23.30
2022-09-02T19:40:33.660Z,23.40
2022-09-02T19:43:05.324Z,23.40
2022-09-02T19:45:36.133Z,23.40
2022-09-02T19:48:07.572Z,23.30
2022-09-02T19:50:37.797Z,23.20
2022-09-02T19:53:05.959Z,23.20
2022-09-02T19:55:36.508Z,23.10
2022-09-02T19:58:04.428Z,23.10
2022-09-02T20:00:33.748Z,23.10
2022-09-02T20:05:31.440Z,22.80
2022-09-02T20:07:58.830Z,22.70
2022-09-02T20:10:27.947Z,22.60
2022-09-02T20:12:55.730Z,22.50
2022-09-02T20:15:23.295Z,22.40
2022-09-02T20:17:50.768Z,22.30
2022-09-02T20:20:22.505Z,22.30
2022-09-02T20:22:57.574Z,22.20
2022-09-02T20:25:34.906Z,22.10
2022-09-02T20:28:28.377Z,22.20
2022-09-02T20:31:14.036Z,22.20
2022-09-02T20:34:17.943Z,22.20
2022-09-02T20:36:55.858Z,22.20
2022-09-02T20:39:40.391Z,22.20
2022-09-02T20:42:25.456Z,22.10
2022-09-02T20:45:14.451Z,22.10
2022-09-02T20:48:10.422Z,22.00
2022-09-02T20:50:47.615Z,22.00
2022-09-02T20:53:35.792Z,22.00
2022-09-02T20:56:32.859Z,21.90
2022-09-02T20:59:11.399Z,21.90
2022-09-02T21:01:42.134Z,21.90
2022-09-02T21:04:30.766Z,21.90
2022-09-02T21:07:33.649Z,21.90
2022-09-02T21:10:09.253Z,21.90
2022-09-02T21:12:43.848Z,22.00
2022-09-02T21:15:18.826Z,22.00
2022-09-02T21:17:55.195Z,22.00
2022-09-02T21:20:44.009Z,22.10
2022-09-02T21:23:27.310Z,22.10
2022-09-02T21:26:26.043Z,22.10
2022-09-02T21:29:04.491Z,22.00
2022-09-02T21:31:35.491Z,22.00
2022-09-02T21:34:15.470Z,22.00
2022-09-02T21:36:43.875Z,22.00
2022-09-02T21:39:17.009Z,22.00
2022-09-02T21:42:06.191Z,22.00
2022-09-02T21:44:51.590Z,22.10
2022-09-02T21:47:25.956Z,22.10
2022-09-02T21:50:21.904Z,22.10
2022-09-02T21:52:58.040Z,22.00
2022-09-02T21:55:40.143Z,22.00
2022-09-02T21:58:26.396Z,22.00
2022-09-02T22:01:21.961Z,21.90
2022-09-02T22:04:04.062Z,21.80
2022-09-02T22:06:47.896Z,21.80
2022-09-02T22:09:23.916Z,21.70
2022-09-02T22:12:02.270Z,21.70
2022-09-02T22:14:52.836Z,21.60
2022-09-02T22:17:45.812Z,21.60
2022-09-02T22:20:18.824Z,21.50
2022-09-02T22:23:00.021Z,21.50
2022-09-02T22:25:30.484Z,21.50
2022-09-02T22:28:10.037Z,21.40
2022-09-02T22:30:43.873Z,21.40
2022-09-02T22:33:15.046Z,21.30
2022-09-02T22:35:57.625Z,21.20
2022-09-02T22:38:34.961Z,21.20
2022-09-02T22:41:25.020Z,21.20
2022-09-02T22:44:12.782Z,21.20
2022-09-02T22:47:19.740Z,21.10
2022-09-02T22:50:10.943Z,20.80
2022-09-02T22:52:49.296Z,20.40
2022-09-02T22:55:34.649Z,20.30
2022-09-02T22:58:20.965Z,20.20
2022-09-02T23:01:24.888Z,20.00
2022-09-02T23:04:11.107Z,19.80
2022-09-02T23:06:39.140Z,19.60
2022-09-02T23:09:11.311Z,19.60
2022-09-02T23:12:04.433Z,19.50
2022-09-02T23:14:44.505Z,19.30
2022-09-02T23:17:44.478Z,19.10
2022-09-02T23:20:18.952Z,19.10
2022-09-02T23:23:05.039Z,19.20
2022-09-02T23:26:09.448Z,19.10
2022-09-02T23:29:02.298Z,19.00
2022-09-02T23:31:54.129Z,18.90
2022-09-02T23:34:24.844Z,18.80
2022-09-02T23:37:11.214Z,18.80
2022-09-02T23:39:57.054Z,18.80
2022-09-02T23:42:25.412Z,18.90
2022-09-02T23:44:59.111Z,18.80
2022-09-02T23:48:18.491Z,18.60
2022-09-02T23:50:51.482Z,18.60
2022-09-02T23:53:27.239Z,18.60
2022-09-02T23:56:10.144Z,18.70
2022-09-02T23:58:59.130Z,18.80
